Time;durP1;ratioP1;P1;durP2;ratioP2;P2;SDS_P1;SDS_P2;PMS_P1;PMS_P2;Temp;Humidity;BMP_temperature;BMP_pressure;BME280_temperature;BME280_humidity;BME280_pressure;Samples;Min_cycle;Max_cycle;Signal;HPM_P1;HPM_P2
2022/12/29 00:02:21;;;;;;;3.50;1.90;;;;;;;8.62;100.00;100086.88;5092193;28;20099;-79
2022/12/29 00:04:46;;;;;;;5.30;1.80;;;;;;;8.64;100.00;100092.03;5093226;28;20020;-78
2022/12/29 00:07:11;;;;;;;2.25;1.40;;;;;;;8.61;100.00;100085.19;5092840;28;20544;-78
2022/12/29 00:09:37;;;;;;;1.70;1.58;;;;;;;8.51;100.00;100094.13;5092548;28;20028;-78
2022/12/29 00:12:03;;;;;;;1.20;1.00;;;;;;;8.54;100.00;100080.19;5092806;28;20024;-79
2022/12/29 00:17:13;;;;;;;;;;;;;;;8.39;100.00;100065.88;5092924;28;20391;-78
2022/12/29 00:36:11;;;;;;;;;;;;;;;8.28;100.00;100044.50;5078129;28;19962;-79
2022/12/29 00:44:10;;;;;;;3.78;2.30;;;;;;;8.30;100.00;100035.75;5091744;28;20039;-79
2022/12/29 00:46:38;;;;;;;3.53;2.50;;;;;;;8.35;100.00;100043.44;5092677;28;20027;-79
2022/12/29 00:51:49;;;;;;;5.40;3.97;;;;;;;8.44;100.00;100022.44;5091971;28;20096;-78
2022/12/29 00:54:15;;;;;;;8.40;4.47;;;;;;;8.31;100.00;100003.72;5097427;22;20126;-81
2022/12/29 00:56:51;;;;;;;8.65;5.18;;;;;;;8.35;100.00;99999.28;5091004;28;20118;-79
2022/12/29 00:59:58;;;;;;;7.20;5.32;;;;;;;8.29;100.00;99976.09;5091362;28;20028;-79
2022/12/29 01:02:34;;;;;;;7.53;5.20;;;;;;;8.52;100.00;100004.88;5040747;28;20314;-79
2022/12/29 01:05:08;;;;;;;6.20;5.03;;;;;;;8.42;100.00;99980.06;5031256;28;20080;-79
2022/12/29 01:07:42;;;;;;;6.22;5.25;;;;;;;8.37;100.00;99959.41;5066874;28;20040;-79
2022/12/29 01:10:10;;;;;;;;;;;;;;;8.64;100.00;99999.34;5089232;28;20066;-79
2022/12/29 01:12:41;;;;;;;5.90;4.05;;;;;;;8.48;100.00;99977.31;5091279;28;19919;-79
2022/12/29 01:15:09;;;;;;;8.82;4.38;;;;;;;8.30;100.00;99959.59;5091998;28;20477;-78
2022/12/29 01:17:35;;;;;;;6.15;4.10;;;;;;;8.55;100.00;99991.81;5092293;28;20078;-79
2022/12/29 01:20:01;;;;;;;7.22;4.10;;;;;;;8.44;100.00;99970.50;5088071;28;20472;-79
2022/12/29 01:22:27;;;;;;;5.03;3.55;;;;;;;8.52;100.00;99972.88;5091280;28;20055;-79
2022/12/29 01:24:52;;;;;;;5.13;3.53;;;;;;;8.60;100.00;99994.25;5091946;28;20422;-79
2022/12/29 01:27:18;;;;;;;3.90;3.40;;;;;;;8.51;100.00;99991.97;5083889;28;20020;-79
2022/12/29 01:29:43;;;;;;;6.35;3.25;;;;;;;8.48;100.00;99977.31;5092246;28;20060;-79
2022/12/29 01:32:08;;;;;;;4.25;3.00;;;;;;;8.37;100.00;99979.31;5091411;28;20016;-79
2022/12/29 01:34:34;;;;;;;6.07;2.92;;;;;;;8.48;100.00;99979.91;5091147;28;20451;-79
2022/12/29 01:36:59;;;;;;;5.47;2.42;;;;;;;8.34;100.00;99977.66;5091791;28;20016;-79
2022/12/29 01:39:24;;;;;;;4.25;2.50;;;;;;;8.49;100.00;99986.78;5091033;28;20022;-79
2022/12/29 01:41:50;;;;;;;3.72;2.15;;;;;;;8.47;100.00;99973.00;5091524;28;20035;-79
2022/12/29 01:44:52;;;;;;;4.85;2.42;;;;;;;8.54;100.00;99984.94;5091897;28;20480;-79
2022/12/29 01:47:43;;;;;;;7.60;1.98;;;;;;;8.56;100.00;99979.66;5090774;28;20020;-79
2022/12/29 01:50:22;;;;;;;4.15;2.08;;;;;;;8.58;100.00;99985.69;5088230;28;20032;-79
2022/12/29 01:52:57;;;;;;;4.72;2.00;;;;;;;8.55;100.00;99984.03;5092165;28;20030;-79
2022/12/29 01:55:24;;;;;;;4.75;1.80;;;;;;;8.55;100.00;99985.78;5090555;28;20144;-79
2022/12/29 01:57:52;;;;;;;4.75;1.80;;;;;;;8.55;100.00;99977.97;5092060;28;20099;-79
2022/12/29 02:00:19;;;;;;;3.78;1.60;;;;;;;8.54;100.00;99995.31;5090954;28;20352;-79
2022/12/29 02:02:52;;;;;;;2.80;1.50;;;;;;;8.57;100.00;99995.22;5091802;28;20107;-79
2022/12/29 02:05:42;;;;;;;3.72;1.60;;;;;;;8.59;100.00;99998.63;5091551;28;20471;-79
2022/12/29 02:08:09;;;;;;;5.18;1.50;;;;;;;8.58;100.00;99998.69;5078900;28;20028;-79
2022/12/29 02:10:35;;;;;;;4.03;1.45;;;;;;;8.52;100.00;99978.06;5093691;28;20106;-79
2022/12/29 02:13:01;;;;;;;2.10;1.38;;;;;;;8.60;100.00;99986.47;5095529;28;20107;-79
2022/12/29 02:15:35;;;;;;;4.00;1.50;;;;;;;8.59;100.00;99980.44;5094522;28;20878;-79
2022/12/29 02:18:35;;;;;;;4.55;1.48;;;;;;;8.62;100.00;99975.16;5095141;28;20020;-78
2022/12/29 02:21:31;;;;;;;3.78;1.63;;;;;;;8.59;100.00;99985.63;5086545;28;20021;-78
2022/12/29 02:24:22;;;;;;;4.30;1.42;;;;;;;8.57;100.00;99989.19;5095600;28;20036;-79
2022/12/29 02:27:25;;;;;;;4.72;1.73;;;;;;;8.65;100.00;99984.59;5082755;28;20427;-79
2022/12/29 02:30:24;;;;;;;5.75;1.60;;;;;;;8.63;100.00;99966.47;5094190;28;20490;-79
2022/12/29 02:33:23;;;;;;;3.35;1.58;;;;;;;8.61;100.00;99975.22;5095181;28;20031;-79
2022/12/29 02:36:00;;;;;;;2.72;1.45;;;;;;;8.56;100.00;99964.94;5094063;28;20032;-79
2022/12/29 02:38:29;;;;;;;5.72;1.55;;;;;;;8.59;100.00;99953.59;5094900;28;20058;-79
2022/12/29 02:41:07;;;;;;;4.93;1.55;;;;;;;8.58;100.00;99960.56;5095134;28;20059;-79
2022/12/29 02:43:50;;;;;;;4.78;1.65;;;;;;;8.56;100.00;99957.13;5093959;28;20532;-79
2022/12/29 02:46:27;;;;;;;3.45;1.45;;;;;;;8.51;100.00;99956.44;5094069;28;20023;-79
2022/12/29 02:49:09;;;;;;;4.47;1.45;;;;;;;8.46;100.00;99953.09;5094895;28;20026;-79
2022/12/29 02:51:46;;;;;;;5.13;1.33;;;;;;;8.49;100.00;99954.78;5094123;28;20076;-78
2022/12/29 02:56:56;;;;;;;5.93;1.60;;;;;;;8.53;100.00;99953.78;5094197;28;20101;-79
2022/12/29 02:59:22;;;;;;;5.22;1.55;;;;;;;8.48;100.00;99940.94;5094454;28;20020;-78
2022/12/29 03:02:18;;;;;;;4.35;1.50;;;;;;;8.54;100.00;99945.13;5094745;28;20024;-78
2022/12/29 03:05:14;;;;;;;3.38;1.50;;;;;;;8.51;100.00;99937.41;5093670;28;20039;-78
2022/12/29 03:07:55;;;;;;;3.45;1.40;;;;;;;8.53;100.00;99946.84;5094620;28;20497;-78
2022/12/29 03:10:36;;;;;;;2.45;1.02;;;;;;;8.47;100.00;99952.22;5093689;28;20047;-79
2022/12/29 03:16:04;;;;;;;2.33;1.15;;;;;;;8.49;100.00;99942.63;5094148;28;20031;-78
2022/12/29 03:18:32;;;;;;;1.50;1.23;;;;;;;8.54;100.00;99952.91;5093189;28;20076;-79
2022/12/29 03:22:26;;;;;;;3.33;1.23;;;;;;;8.50;100.00;99944.34;5093094;28;20028;-79
2022/12/29 03:24:08;;;;;;;3.35;1.30;;;;;;;8.49;100.00;99940.03;5093391;28;20365;-78
2022/12/29 03:26:33;;;;;;;1.83;1.10;;;;;;;8.48;100.00;99929.69;5093406;28;20028;-79
2022/12/29 03:28:59;;;;;;;3.20;1.00;;;;;;;8.52;100.00;99934.75;5093885;28;20452;-78
2022/12/29 03:31:25;;;;;;;4.43;1.52;;;;;;;8.48;100.00;99945.28;5093580;28;20131;-78
2022/12/29 03:33:52;;;;;;;4.57;1.48;;;;;;;8.42;100.00;99934.16;5092966;28;20071;-79
2022/12/29 03:36:30;;;;;;;3.08;1.10;;;;;;;8.42;100.00;99922.94;5093420;28;20078;-79
2022/12/29 03:39:02;;;;;;;3.83;1.23;;;;;;;8.33;100.00;99934.41;5093221;28;20024;-79
2022/12/29 03:41:31;;;;;;;2.65;1.27;;;;;;;8.24;100.00;99941.59;5093538;28;20074;-78
2022/12/29 03:43:56;;;;;;;4.25;1.33;;;;;;;8.19;100.00;99939.97;5093675;28;20430;-78
2022/12/29 03:46:23;;;;;;;3.88;1.27;;;;;;;8.10;100.00;99945.44;5092506;28;20100;-79
2022/12/29 03:48:48;;;;;;;2.72;1.33;;;;;;;8.08;100.00;99930.81;5093422;28;20468;-79
2022/12/29 03:51:13;;;;;;;5.15;1.38;;;;;;;7.97;100.00;99934.53;5093400;28;20047;-79
2022/12/29 03:53:39;;;;;;;6.07;1.30;;;;;;;8.04;100.00;99930.00;5092822;28;20098;-78
2022/12/29 03:56:04;;;;;;;3.88;1.20;;;;;;;8.04;100.00;99935.22;5093178;28;20044;-79
2022/12/29 03:58:29;;;;;;;5.15;1.27;;;;;;;8.13;100.00;99962.66;5093253;28;20020;-78
2022/12/29 04:00:55;;;;;;;5.22;1.23;;;;;;;8.12;100.00;99953.19;5092808;28;20035;-78
2022/12/29 04:03:20;;;;;;;4.43;1.60;;;;;;;8.21;100.00;99964.19;5092951;28;20440;-78
2022/12/29 04:05:45;;;;;;;3.30;1.38;;;;;;;8.18;100.00;99960.81;5093334;28;20024;-79
2022/12/29 04:08:11;;;;;;;4.40;1.48;;;;;;;8.20;100.00;99959.00;5092347;28;20091;-78
2022/12/29 04:10:36;;;;;;;7.70;1.67;;;;;;;8.09;100.00;99933.34;5092995;28;20460;-78
2022/12/29 04:13:01;;;;;;;3.75;1.40;;;;;;;8.13;100.00;99947.94;5092965;28;20067;-78
2022/12/29 04:15:26;;;;;;;7.05;1.58;;;;;;;8.00;100.00;99948.31;5092189;28;20051;-78
2022/12/29 04:17:52;;;;;;;6.78;1.30;;;;;;;7.98;100.00;99976.94;5092974;28;20019;-79
2022/12/29 04:23:02;;;;;;;;;;;;;;;7.88;100.00;99980.63;5080203;28;20058;-78
2022/12/29 04:25:28;;;;;;;7.30;1.40;;;;;;;7.83;100.00;99985.09;5092658;28;20366;-79
2022/12/29 04:27:53;;;;;;;5.40;1.27;;;;;;;7.79;100.00;99991.28;5092819;28;20039;-79
2022/12/29 04:30:18;;;;;;;5.70;1.40;;;;;;;7.79;100.00;99980.91;5091942;28;20030;-78
2022/12/29 04:32:44;;;;;;;6.07;1.30;;;;;;;7.71;100.00;99968.09;5092387;28;20375;-79
2022/12/29 04:35:09;;;;;;;5.80;1.40;;;;;;;7.73;100.00;99982.75;5091342;28;20026;-78
2022/12/29 04:37:34;;;;;;;7.00;1.52;;;;;;;7.68;100.00;99982.03;5092847;28;20024;-79
2022/12/29 04:40:00;;;;;;;6.55;1.60;;;;;;;7.66;100.00;99990.72;5092611;28;20434;-78
2022/12/29 04:42:25;;;;;;;5.90;1.70;;;;;;;7.58;100.00;99983.13;5079463;28;20097;-78
2022/12/29 04:44:50;;;;;;;8.55;1.73;;;;;;;7.51;100.00;99991.94;5092452;28;20020;-79
2022/12/29 04:47:15;;;;;;;8.07;1.58;;;;;;;7.39;100.00;99982.75;5092124;28;20031;-78
2022/12/29 04:49:41;;;;;;;7.85;1.38;;;;;;;7.38;100.00;100003.50;5092018;28;20106;-79
2022/12/29 04:52:08;;;;;;;8.45;1.65;;;;;;;7.37;100.00;100010.44;5092289;28;20032;-79
2022/12/29 04:54:33;;;;;;;5.65;1.95;;;;;;;7.35;100.00;100013.94;5092408;28;20020;-79
2022/12/29 04:56:59;;;;;;;11.05;2.15;;;;;;;7.34;100.00;100025.22;5091851;28;20029;-79
2022/12/29 04:59:24;;;;;;;9.85;1.52;;;;;;;7.33;100.00;100021.78;5092218;28;20048;-78
2022/12/29 05:01:49;;;;;;;7.90;1.67;;;;;;;7.34;100.00;100004.47;5092150;28;20405;-79
2022/12/29 05:04:14;;;;;;;9.07;1.65;;;;;;;7.28;100.00;100005.47;5091250;28;20031;-79
2022/12/29 05:06:40;;;;;;;19.88;2.15;;;;;;;7.26;100.00;100017.63;5092466;28;20062;-79
2022/12/29 05:09:05;;;;;;;7.15;1.20;;;;;;;7.19;100.00;100005.66;5092199;28;20061;-79
2022/12/29 05:11:31;;;;;;;6.28;1.50;;;;;;;7.23;100.00;100039.28;5091396;28;20023;-79
2022/12/29 05:13:56;;;;;;;9.88;1.55;;;;;;;7.14;100.00;100017.91;5091927;28;20077;-79
2022/12/29 05:16:21;;;;;;;8.60;1.42;;;;;;;7.12;100.00;100046.44;5091862;28;20031;-79
2022/12/29 05:18:46;;;;;;;10.10;1.50;;;;;;;7.09;100.00;100043.91;5091477;28;20506;-78
2022/12/29 05:21:12;;;;;;;8.68;1.63;;;;;;;7.14;100.00;100049.84;5091847;28;20471;-79
2022/12/29 05:23:37;;;;;;;8.00;1.92;;;;;;;7.21;100.00;100056.59;5092187;28;20024;-79
2022/12/29 05:26:02;;;;;;;5.57;1.45;;;;;;;7.26;100.00;100038.38;5091149;28;20066;-79
2022/12/29 05:28:28;;;;;;;8.38;1.65;;;;;;;7.34;100.00;100040.78;5091776;28;20031;-79
2022/12/29 05:30:53;;;;;;;7.57;1.50;;;;;;;7.36;100.00;100044.19;5091713;28;20114;-79
2022/12/29 05:33:19;;;;;;;8.45;1.50;;;;;;;7.42;100.00;100049.22;5091068;28;20447;-79
2022/12/29 05:35:45;;;;;;;6.90;1.63;;;;;;;7.45;100.00;100049.16;5092052;28;20162;-78
2022/12/29 05:38:10;;;;;;;6.43;1.45;;;;;;;7.50;100.00;100061.13;5091936;28;20020;-79
2022/12/29 05:40:35;;;;;;;9.65;1.83;;;;;;;7.46;100.00;100058.66;5091312;28;20035;-79
2022/12/29 05:43:01;;;;;;;3.22;1.17;;;;;;;7.45;100.00;100059.53;5091717;28;20028;-79
2022/12/29 05:45:26;;;;;;;8.90;1.30;;;;;;;7.49;100.00;100058.59;5093108;28;20145;-79
2022/12/29 05:47:51;;;;;;;9.60;1.90;;;;;;;7.50;100.00;100074.09;5096096;28;20024;-78
2022/12/29 05:50:17;;;;;;;6.00;1.63;;;;;;;7.54;100.00;100074.88;5095348;28;20050;-79
2022/12/29 05:52:42;;;;;;;6.13;1.50;;;;;;;7.52;100.00;100071.47;5094778;28;20043;-78
2022/12/29 05:55:07;;;;;;;7.03;1.90;;;;;;;7.53;100.00;100072.34;5095102;28;20039;-78
2022/12/29 05:57:33;;;;;;;9.68;1.52;;;;;;;7.60;100.00;100079.06;5095854;28;20021;-79
2022/12/29 05:59:58;;;;;;;3.00;1.27;;;;;;;7.68;100.00;100085.81;5094158;28;20406;-79
2022/12/29 06:02:23;;;;;;;6.05;1.20;;;;;;;7.68;100.00;100077.13;5095366;28;20078;-79
2022/12/29 06:04:51;;;;;;;3.10;1.20;;;;;;;7.77;100.00;100076.06;5095918;28;20532;-79
2022/12/29 06:07:17;;;;;;;9.10;1.73;;;;;;;7.81;100.00;100085.47;5094416;28;20039;-78
2022/12/29 06:09:42;;;;;;;8.15;2.78;;;;;;;7.82;100.00;100100.19;5095646;28;20051;-79
2022/12/29 06:12:07;;;;;;;5.60;1.15;;;;;;;7.80;100.00;100066.47;5094715;28;20028;-79
2022/12/29 06:14:32;;;;;;;4.97;1.15;;;;;;;7.81;100.00;100082.88;5093841;28;20028;-78
2022/12/29 06:16:58;;;;;;;5.68;1.40;;;;;;;7.89;100.00;100093.94;5095181;28;20077;-79
2022/12/29 06:19:23;;;;;;;6.93;1.40;;;;;;;7.82;100.00;100069.91;5094740;28;20027;-79
2022/12/29 06:21:48;;;;;;;5.57;1.60;;;;;;;7.87;100.00;100082.75;5092046;28;20032;-79
2022/12/29 06:24:14;;;;;;;5.97;1.33;;;;;;;7.87;100.00;100080.16;5094783;28;20016;-79
2022/12/29 06:26:40;;;;;;;6.47;1.25;;;;;;;7.90;100.00;100069.69;5095050;28;20027;-79
2022/12/29 06:29:07;;;;;;;6.75;1.30;;;;;;;7.84;100.00;100064.66;5093937;28;20024;-79
2022/12/29 06:31:34;;;;;;;5.70;1.42;;;;;;;7.82;100.00;100064.72;5094320;28;20395;-79
2022/12/29 06:33:59;;;;;;;7.85;1.25;;;;;;;7.72;100.00;100064.06;5094502;28;20028;-79
2022/12/29 06:36:24;;;;;;;10.30;1.70;;;;;;;7.63;100.00;100072.06;5093771;28;20020;-79
2022/12/29 06:38:52;;;;;;;6.35;1.30;;;;;;;7.55;100.00;100061.00;5094843;28;20548;-79
2022/12/29 06:41:18;;;;;;;5.97;1.30;;;;;;;7.51;100.00;100056.78;5094345;28;20383;-79
2022/12/29 06:43:43;;;;;;;5.93;1.23;;;;;;;7.59;100.00;100073.03;5093872;28;20016;-79
2022/12/29 06:46:08;;;;;;;6.45;1.27;;;;;;;7.56;100.00;100067.06;5094769;28;20051;-79
2022/12/29 06:48:33;;;;;;;8.60;1.40;;;;;;;7.59;100.00;100067.84;5094877;28;20103;-79
2022/12/29 06:50:59;;;;;;;8.82;1.42;;;;;;;7.61;100.00;100075.59;5094121;28;20016;-79
2022/12/29 06:53:24;;;;;;;7.25;1.52;;;;;;;7.76;100.00;100057.06;5094144;28;20056;-79
2022/12/29 06:55:50;;;;;;;7.80;1.70;;;;;;;7.82;100.00;100058.66;5093501;28;20036;-79
2022/12/29 06:58:15;;;;;;;6.28;1.65;;;;;;;7.86;100.00;100066.31;5094147;28;20023;-79
2022/12/29 07:00:40;;;;;;;6.70;1.80;;;;;;;7.88;100.00;100084.44;5094673;28;20039;-79
2022/12/29 07:03:06;;;;;;;8.00;1.38;;;;;;;8.01;100.00;100075.50;5093598;28;20468;-79
2022/12/29 07:05:32;;;;;;;7.65;1.42;;;;;;;8.12;100.00;100089.03;5094337;28;20086;-79
2022/12/29 07:07:58;;;;;;;7.38;1.42;;;;;;;8.14;100.00;100082.06;5094333;28;20066;-79
2022/12/29 07:10:23;;;;;;;5.95;1.45;;;;;;;8.23;100.00;100095.69;5093249;28;20024;-79
2022/12/29 07:12:48;;;;;;;8.00;1.75;;;;;;;8.19;100.00;100093.19;5094118;28;20027;-79
2022/12/29 07:15:14;;;;;;;4.10;1.77;;;;;;;8.10;100.00;100074.38;5094223;28;20020;-78
2022/12/29 07:17:39;;;;;;;6.32;1.48;;;;;;;8.19;100.00;100095.78;5093640;28;20016;-79
2022/12/29 07:20:05;;;;;;;8.77;1.90;;;;;;;8.28;100.00;100114.63;5094306;28;20482;-79
2022/12/29 07:22:31;;;;;;;8.77;1.80;;;;;;;8.30;100.00;100105.03;5092160;28;20426;-79
2022/12/29 07:24:56;;;;;;;5.82;1.83;;;;;;;8.32;100.00;100124.03;5093441;28;20020;-79
2022/12/29 07:27:21;;;;;;;8.40;2.33;;;;;;;8.35;100.00;100116.16;5093956;28;20052;-79
2022/12/29 07:29:47;;;;;;;5.50;1.50;;;;;;;8.32;100.00;100124.03;5094287;28;20016;-79
2022/12/29 07:32:12;;;;;;;11.82;2.40;;;;;;;8.25;100.00;100125.09;5092700;28;20020;-79
2022/12/29 07:34:40;;;;;;;8.15;1.70;;;;;;;8.33;100.00;100131.75;5093892;28;20032;-79
2022/12/29 07:37:06;;;;;;;11.05;2.00;;;;;;;8.26;100.00;100126.78;5094078;28;20047;-79
2022/12/29 07:39:31;;;;;;;8.43;1.90;;;;;;;8.35;100.00;100121.34;5092856;28;20066;-79
2022/12/29 07:41:56;;;;;;;7.85;1.70;;;;;;;8.18;100.00;100114.84;5093251;28;20016;-79
2022/12/29 07:44:21;;;;;;;9.73;2.35;;;;;;;8.20;100.00;100135.56;5093501;28;20024;-79
2022/12/29 07:46:47;;;;;;;9.60;1.92;;;;;;;8.24;100.00;100120.75;5092491;28;20016;-79
2022/12/29 07:49:12;;;;;;;8.95;1.63;;;;;;;8.32;100.00;100129.22;5093054;28;20028;-79
2022/12/29 07:51:38;;;;;;;9.80;1.95;;;;;;;8.37;100.00;100140.31;5093520;28;20068;-79
2022/12/29 07:54:03;;;;;;;11.70;1.80;;;;;;;8.29;100.00;100121.50;5092858;28;20190;-79
2022/12/29 07:56:28;;;;;;;10.30;2.05;;;;;;;8.39;100.00;100136.00;5092778;28;20407;-79
2022/12/29 07:58:54;;;;;;;10.18;2.03;;;;;;;8.32;100.00;100122.28;5092998;28;20483;-79
2022/12/29 08:01:19;;;;;;;8.10;1.70;;;;;;;8.33;100.00;100117.94;5092572;28;20116;-80
2022/12/29 08:03:44;;;;;;;11.32;2.88;;;;;;;8.37;100.00;100127.34;5093118;28;20110;-79
2022/12/29 08:06:11;;;;;;;7.20;2.53;;;;;;;8.34;100.00;100130.06;5091973;28;20036;-79
2022/12/29 08:08:36;;;;;;;10.48;1.90;;;;;;;8.46;100.00;100142.72;5092474;28;20020;-79
2022/12/29 08:11:01;;;;;;;9.40;2.25;;;;;;;8.54;100.00;100145.16;5093355;28;20031;-79
2022/12/29 08:13:27;;;;;;;9.23;2.25;;;;;;;8.46;100.00;100129.75;5092034;28;20109;-79
2022/12/29 08:15:52;;;;;;;6.22;1.40;;;;;;;8.56;100.00;100151.13;5093278;28;20488;-79
2022/12/29 08:18:17;;;;;;;10.38;2.10;;;;;;;8.50;100.00;100152.19;5092693;28;20410;-79
2022/12/29 08:20:43;;;;;;;6.45;2.00;;;;;;;8.52;100.00;100144.31;5091271;28;20103;-79
2022/12/29 08:23:08;;;;;;;10.43;1.92;;;;;;;8.55;100.00;100157.25;5092897;28;20443;-79
2022/12/29 08:25:33;;;;;;;10.20;1.70;;;;;;;8.57;100.00;100158.91;5093075;28;20024;-79
2022/12/29 08:27:59;;;;;;;6.90;2.30;;;;;;;8.57;100.00;100160.66;5092225;28;20379;-79
2022/12/29 08:30:24;;;;;;;7.82;1.77;;;;;;;8.55;100.00;100150.28;5092561;28;20084;-78
2022/12/29 08:32:50;;;;;;;8.82;2.50;;;;;;;8.61;100.00;100154.47;5092715;28;20051;-79
2022/12/29 08:35:15;;;;;;;10.07;1.80;;;;;;;8.66;100.00;100153.47;5091658;28;20387;-79
2022/12/29 08:37:41;;;;;;;8.05;1.98;;;;;;;8.71;100.00;100157.69;5092933;28;20024;-79
2022/12/29 08:40:07;;;;;;;8.05;1.40;;;;;;;8.73;100.00;100161.09;5092680;28;20454;-79
2022/12/29 08:42:32;;;;;;;10.32;2.15;;;;;;;8.81;100.00;100154.78;5091591;28;20028;-79
2022/12/29 08:44:58;;;;;;;10.95;2.00;;;;;;;8.87;100.00;100158.97;5092356;28;20099;-79
2022/12/29 08:47:24;;;;;;;10.32;2.00;;;;;;;8.95;100.00;100161.38;5092170;28;20027;-79
2022/12/29 08:49:49;;;;;;;10.48;2.65;;;;;;;8.97;100.00;100160.44;5091997;28;20069;-79
2022/12/29 08:52:15;;;;;;;7.88;1.95;;;;;;;9.02;100.00;100155.09;5092141;28;20052;-79
2022/12/29 08:54:40;;;;;;;9.57;1.80;;;;;;;9.06;100.00;100160.19;5091798;28;20460;-79
2022/12/29 08:57:05;;;;;;;8.80;2.60;;;;;;;9.03;100.00;100162.03;5091640;28;20028;-79
2022/12/29 08:59:30;;;;;;;8.77;1.60;;;;;;;8.87;100.00;100135.59;5092253;28;20023;-79
2022/12/29 09:01:56;;;;;;;6.88;1.83;;;;;;;9.01;100.00;100156.84;5092295;28;20028;-79
2022/12/29 09:04:23;;;;;;;6.75;1.98;;;;;;;8.98;100.00;100156.94;5091384;28;20425;-79
2022/12/29 09:06:49;;;;;;;5.13;1.45;;;;;;;9.01;100.00;100175.03;5092252;28;20467;-79
2022/12/29 09:09:14;;;;;;;7.95;1.75;;;;;;;9.00;100.00;100173.34;5078088;28;20036;-79
2022/12/29 09:11:40;;;;;;;9.35;2.00;;;;;;;9.01;100.00;100171.59;5091639;28;20024;-79
2022/12/29 09:14:05;;;;;;;7.07;3.00;;;;;;;8.96;100.00;100176.94;5091845;28;20036;-79
2022/12/29 09:16:30;;;;;;;10.38;1.75;;;;;;;8.75;100.00;100193.09;5090733;28;20069;-79
2022/12/29 09:18:55;;;;;;;9.35;1.98;;;;;;;8.61;100.00;100172.66;5091528;28;20123;-79
2022/12/29 09:21:21;;;;;;;14.50;1.95;;;;;;;8.38;100.00;100178.44;5095655;28;20486;-79
2022/12/29 09:23:47;;;;;;;8.88;1.88;;;;;;;8.36;100.00;100185.38;5109922;22;20087;-79
2022/12/29 09:26:13;;;;;;;7.97;1.60;;;;;;;8.32;100.00;100199.34;5095600;28;20028;-79
2022/12/29 09:28:40;;;;;;;9.60;2.45;;;;;;;8.27;100.00;100204.63;5096559;28;20031;-79
2022/12/29 09:31:05;;;;;;;9.38;2.22;;;;;;;8.22;100.00;100211.69;5095138;28;20028;-79
2022/12/29 09:33:33;;;;;;;9.45;1.70;;;;;;;8.03;100.00;100203.47;5096089;28;20031;-79
2022/12/29 09:35:58;;;;;;;6.93;1.70;;;;;;;7.83;100.00;100196.16;5096138;28;20020;-79
2022/12/29 09:38:25;;;;;;;10.80;1.90;;;;;;;7.77;100.00;100206.66;5076154;28;20030;-79
2022/12/29 09:40:55;;;;;;;11.10;2.25;;;;;;;7.80;100.00;100214.38;5095992;28;20016;-79
2022/12/29 09:43:58;;;;;;;8.07;2.50;;;;;;;7.88;100.00;100225.47;5095999;28;20019;-79
2022/12/29 09:46:28;;;;;;;7.78;1.90;;;;;;;7.81;100.00;100204.84;5095123;28;20024;-79
2022/12/29 09:49:39;;;;;;;12.75;2.20;;;;;;;7.92;100.00;100236.63;5082596;28;20022;-79
2022/12/29 09:52:13;;;;;;;10.43;2.38;;;;;;;7.90;100.00;100231.44;5072465;28;20119;-79
2022/12/29 09:54:58;;;;;;;9.93;1.88;;;;;;;7.98;100.00;100252.06;5096046;28;20032;-78
2022/12/29 09:57:44;;;;;;;9.77;1.80;;;;;;;7.95;100.00;100252.13;5081494;28;20043;-79
2022/12/29 10:00:20;;;;;;;8.73;2.00;;;;;;;7.89;100.00;100273.03;5094725;28;20036;-78
2022/12/29 10:03:17;;;;;;;10.52;2.03;;;;;;;7.80;100.00;100253.31;5095554;28;20036;-79
2022/12/29 10:06:04;;;;;;;9.95;1.77;;;;;;;7.76;100.00;100269.00;5094720;28;20169;-79
2022/12/29 10:08:41;;;;;;;7.85;1.92;;;;;;;7.82;100.00;100271.47;5095545;28;20035;-79
2022/12/29 10:11:07;;;;;;;10.25;1.95;;;;;;;7.70;100.00;100270.81;5082848;28;20020;-79
2022/12/29 10:14:00;;;;;;;10.38;1.90;;;;;;;7.61;100.00;100286.56;5094504;28;20498;-79
2022/12/29 10:16:48;;;;;;;10.25;1.80;;;;;;;7.56;100.00;100305.72;5084130;28;20032;-79
2022/12/29 10:19:32;;;;;;;13.55;2.45;;;;;;;7.48;100.00;100304.09;5094396;28;20111;-79
2022/12/29 10:22:05;;;;;;;9.45;2.08;;;;;;;7.46;100.00;100311.06;5088845;22;20118;-79
2022/12/29 10:24:35;;;;;;;11.98;2.10;;;;;;;7.45;100.00;100308.50;5094947;28;20027;-79
2022/12/29 10:27:01;;;;;;;11.27;2.67;;;;;;;7.50;100.00;100317.06;5094583;28;20121;-79
2022/12/29 10:29:34;;;;;;;9.63;2.47;;;;;;;7.48;100.00;100322.25;5094767;28;20429;-79
2022/12/29 10:32:05;;;;;;;12.32;2.78;;;;;;;7.40;100.00;100312.94;5094511;28;20032;-79
2022/12/29 10:34:40;;;;;;;14.57;2.50;;;;;;;7.41;100.00;100344.00;5094167;28;20044;-79
2022/12/29 10:37:30;;;;;;;12.10;2.45;;;;;;;7.45;100.00;100327.50;5094471;28;20479;-79
2022/12/29 10:39:56;;;;;;;11.43;2.95;;;;;;;7.42;100.00;100334.47;5094740;28;20039;-79
2022/12/29 10:42:46;;;;;;;15.13;2.85;;;;;;;7.45;100.00;100337.03;5093781;28;20024;-79
2022/12/29 10:45:16;;;;;;;14.07;2.88;;;;;;;7.46;100.00;100343.94;5094807;28;20027;-79
2022/12/29 10:48:05;;;;;;;14.82;2.50;;;;;;;7.53;100.00;100342.94;5094910;28;20119;-78
2022/12/29 10:50:30;;;;;;;11.98;3.10;;;;;;;7.51;100.00;100353.31;5094300;28;20024;-79
2022/12/29 10:53:00;;;;;;;15.10;2.53;;;;;;;7.52;100.00;100354.22;5094662;28;20486;-79
2022/12/29 10:55:31;;;;;;;10.77;2.90;;;;;;;7.54;100.00;100364.53;5093636;28;20103;-79
2022/12/29 10:58:02;;;;;;;11.35;2.50;;;;;;;7.49;100.00;100360.31;5094563;28;20020;-79
2022/12/29 11:00:27;;;;;;;15.05;3.05;;;;;;;7.47;100.00;100374.16;5094148;28;20043;-79
2022/12/29 11:03:11;;;;;;;14.73;2.47;;;;;;;7.43;100.00;100375.13;5094144;28;20047;-79
2022/12/29 11:06:00;;;;;;;14.00;2.80;;;;;;;7.38;100.00;100374.34;5094702;28;20174;-80
2022/12/29 11:08:33;;;;;;;13.75;2.75;;;;;;;7.33;100.00;100370.97;5093994;28;20024;-79
2022/12/29 11:11:04;;;;;;;17.35;2.65;;;;;;;7.36;100.00;100386.50;5080002;28;20059;-79
2022/12/29 11:13:32;;;;;;;16.08;3.17;;;;;;;7.35;100.00;100380.41;5093965;28;20040;-79
2022/12/29 11:16:02;;;;;;;12.57;2.58;;;;;;;7.33;100.00;100383.94;5093721;28;20069;-79
2022/12/29 11:18:37;;;;;;;13.23;2.42;;;;;;;7.34;100.00;100383.06;5093644;28;20024;-79
2022/12/29 11:21:06;;;;;;;19.00;3.40;;;;;;;7.43;100.00;100388.09;5090245;28;20029;-79
2022/12/29 11:23:37;;;;;;;14.48;3.05;;;;;;;7.51;100.00;100381.84;5084628;28;20020;-79
2022/12/29 11:26:19;;;;;;;14.50;2.75;;;;;;;7.53;100.00;100399.16;5094251;28;20094;-79
2022/12/29 11:28:52;;;;;;;11.93;2.50;;;;;;;7.53;100.00;100386.19;5093826;28;20028;-79
2022/12/29 11:31:21;;;;;;;10.53;2.37;;;;;;;7.54;100.00;100391.31;5092998;28;20032;-79
2022/12/29 11:33:46;;;;;;;11.50;2.53;;;;;;;7.59;100.00;100391.25;5094206;28;20381;-79
2022/12/29 11:36:17;;;;;;;12.13;2.55;;;;;;;7.57;100.00;100400.81;5093355;28;20016;-79
2022/12/29 11:38:49;;;;;;;17.58;2.78;;;;;;;7.49;100.00;100403.53;5093271;28;20095;-79
2022/12/29 11:41:28;;;;;;;16.23;3.25;;;;;;;7.46;100.00;100395.81;5093615;28;20024;-79
2022/12/29 11:43:58;;;;;;;11.95;2.50;;;;;;;7.48;100.00;100407.00;5093182;28;20459;-79
2022/12/29 11:46:29;;;;;;;9.23;2.50;;;;;;;7.49;100.00;100406.13;5092855;28;20058;-79
2022/12/29 11:48:58;;;;;;;14.32;2.83;;;;;;;7.47;100.00;100405.28;5080371;28;20024;-79
2022/12/29 11:51:26;;;;;;;16.35;3.30;;;;;;;7.58;100.00;100413.72;5092763;28;20024;-79
2022/12/29 11:53:57;;;;;;;18.48;3.28;;;;;;;7.61;100.00;100416.28;5093544;28;20118;-79
2022/12/29 11:56:35;;;;;;;12.10;2.85;;;;;;;7.70;100.00;100423.03;5092967;28;20024;-79
2022/12/29 11:59:36;;;;;;;12.48;2.97;;;;;;;7.70;100.00;100423.88;5092866;28;20024;-79
2022/12/29 12:02:18;;;;;;;13.88;3.38;;;;;;;7.68;100.00;100427.38;5093543;28;20028;-79
2022/12/29 12:04:43;;;;;;;14.98;3.60;;;;;;;7.73;100.00;100416.06;5093067;28;20020;-79
2022/12/29 12:07:16;;;;;;;13.15;2.60;;;;;;;7.74;100.00;100402.19;5098078;22;20499;-79
2022/12/29 12:09:58;;;;;;;16.15;3.70;;;;;;;7.76;100.00;100416.91;5093187;28;20027;-79
2022/12/29 12:12:45;;;;;;;10.60;2.80;;;;;;;7.81;100.00;100417.66;5091768;28;20394;-79
2022/12/29 12:15:20;;;;;;;16.05;2.70;;;;;;;7.83;100.00;100415.88;5092774;28;20089;-79
2022/12/29 12:18:17;;;;;;;9.98;3.00;;;;;;;7.72;100.00;100416.09;5093417;28;20063;-79